WetterOnline ( http://www.wetteronline.de )

Wetter aktuell Regen

Aktuelles Wetter: Zwiesel (613m)

6-stündlich | Neueste Meldungen
Ortszeit Temperatur Wetter
Mi, 17.10. 14:00 18.6° C wolkig
Mi, 17.10. 8:00 4.4° C bedeckt
Mi, 17.10. 2:00 6.0° C wolkig
Di, 16.10. 20:00 11.1° C bedeckt
Di, 16.10. 14:00 18.7° C wolkenlos
Di, 16.10. 8:00 3.7° C wolkenlos
Di, 16.10. 2:00 6.3° C fast wolkenlos
Mo, 15.10. 20:00 12.9° C bedeckt
Ortszeit Temperatur Wetter
Mi, 17.10. 16:30 18.9° C wolkig
Mi, 17.10. 16:20 18.9° C wolkig
Mi, 17.10. 16:10 19.1° C wolkig
Mi, 17.10. 16:00 19.6° C wolkig
Mi, 17.10. 15:50 19.6° C wolkig
Mi, 17.10. 15:40 19.7° C leicht bewölkt
Mi, 17.10. 15:30 19.3° C wolkenlos
Mi, 17.10. 15:00 19.2° C wolkenlos
Mi, 17.10. 14:30 19.2° C fast wolkenlos
Mi, 17.10. 14:00 18.6° C wolkig
Mi, 17.10. 13:30 18.6° C leicht bewölkt
Ortszeit Relative Feuchte Sichtweite
Mi, 17.10. 14:00 47% 17 km
Mi, 17.10. 8:00 98% 4.4 km
Mi, 17.10. 2:00 96% 5.0 km
Di, 16.10. 20:00 79% 17 km
Di, 16.10. 14:00 43% 20 km
Di, 16.10. 8:00 99% 5.0 km
Di, 16.10. 2:00 93% 12 km
Mo, 15.10. 20:00 74% 26 km
Ortszeit Relative Feuchte Sichtweite
Mi, 17.10. 16:30 50% 19 km
Mi, 17.10. 16:20 50% -
Mi, 17.10. 16:10 50% -
Mi, 17.10. 16:00 44% 21 km
Mi, 17.10. 15:50 44% -
Mi, 17.10. 15:40 44% -
Mi, 17.10. 15:30 45% 21 km
Mi, 17.10. 15:00 44% 16 km
Mi, 17.10. 14:30 46% 16 km
Mi, 17.10. 14:00 47% 17 km
Mi, 17.10. 13:30 49% 17 km
Ortszeit Niederschlagsmenge Niederschlagsart
Mi, 17.10. 14:00 0.0 l/m2 in 6 Std. -
Mi, 17.10. 8:00 0.0 l/m2 in 12 Std. -
Mi, 17.10. 2:00 0.0 l/m2 in 6 Std. -
Di, 16.10. 20:00 0.0 l/m2 in 12 Std. -
Di, 16.10. 14:00 0.0 l/m2 in 6 Std. -
Di, 16.10. 8:00 0.0 l/m2 in 12 Std. -
Di, 16.10. 2:00 0.0 l/m2 in 6 Std. -
Mo, 15.10. 20:00 0.0 l/m2 in 12 Std. -
Ortszeit Niederschlagsmenge Niederschlagsart
Mi, 17.10. 16:30 0.0 l/m2 in 1 Std. -
Mi, 17.10. 16:20 keine Meldung -
Mi, 17.10. 16:10 keine Meldung -
Mi, 17.10. 16:00 0.0 l/m2 in 1 Std. -
Mi, 17.10. 15:50 keine Meldung -
Mi, 17.10. 15:40 keine Meldung -
Mi, 17.10. 15:30 0.0 l/m2 in 1 Std. -
Mi, 17.10. 15:00 0.0 l/m2 in 1 Std. -
Mi, 17.10. 14:30 0.0 l/m2 in 1 Std. -
Mi, 17.10. 14:00 0.0 l/m2 in 1 Std. -
Mi, 17.10. 13:30 0.0 l/m2 in 1 Std. -
Ortszeit Stärke Spitze Richtung
km/h Bft. km/h Grad Sektor
Mi, 17.10. 14:00 7 2 11 250° W
Mi, 17.10. 8:00 0 0 7 - -
Mi, 17.10. 2:00 4 1 7 100° O
Di, 16.10. 20:00 4 1 18 230° SW
Di, 16.10. 14:00 11 2 20 240° SW
Di, 16.10. 8:00 4 1 7 350° N
Di, 16.10. 2:00 0 0 11 - -
Mo, 15.10. 20:00 6 1 13 330° NW
Ortszeit Stärke Spitze Richtung
km/h Bft. km/h Grad Sektor
Mi, 17.10. 16:30 17 3 22 330° NW
Mi, 17.10. 16:20 17 3 - 330° NW
Mi, 17.10. 16:10 15 3 - 320° NW
Mi, 17.10. 16:00 7 2 14 220° SW
Mi, 17.10. 15:50 7 2 - 220° SW
Mi, 17.10. 15:40 9 2 - 240° SW
Mi, 17.10. 15:30 7 2 14 240° SW
Mi, 17.10. 15:00 7 2 14 240° SW
Mi, 17.10. 14:30 7 2 14 260° W
Mi, 17.10. 14:00 7 2 11 250° W
Mi, 17.10. 13:30 7 2 11 240° SW
Ortszeit Untergrenze Bedeckung Gattung
total tief tief mittel hoch
Mi, 17.10. 14:00 3000 m 7/8 7/8 - - -
Mi, 17.10. 8:00 3300 m 8/8 8/8 - - -
Mi, 17.10. 2:00 3000 m 6/8 6/8 - - -
Di, 16.10. 20:00 4500 m 8/8 8/8 - - -
Di, 16.10. 14:00 - 0/8 0/8 - - -
Di, 16.10. 8:00 - 0/8 0/8 - - -
Di, 16.10. 2:00 2400 m 1/8 1/8 - - -
Mo, 15.10. 20:00 5700 m 8/8 8/8 - - -
Ortszeit Bedeckungsgrad in Achtel und Wolkenuntergrenze
Mi, 17.10. 16:30 2(1380m) 8(3300m)
Mi, 17.10. 16:20 2(1380m) 8(3300m)
Mi, 17.10. 16:10 3(1380m) 8(3300m)
Mi, 17.10. 16:00 6(3300m)
Mi, 17.10. 15:50 6(3300m)
Mi, 17.10. 15:40 4(3600m)
Mi, 17.10. 15:30 1(3600m)
Mi, 17.10. 15:00 keine Wolken
Mi, 17.10. 14:30 1(3000m)
Mi, 17.10. 14:00 7(3000m)
Mi, 17.10. 13:30 2(3300m)
Ortszeit Luftdruck NN (hPa) Tendenz (hPa in 3 Std.)
Mi, 17.10. 14:00 1018 - 1,2
Mi, 17.10. 8:00 1023 + 0,4
Mi, 17.10. 2:00 1022 - 0,3
Di, 16.10. 20:00 1021 + 1,0
Di, 16.10. 14:00 1018 0,0
Di, 16.10. 8:00 1021 + 1,0
Di, 16.10. 2:00 1019 + 0,3
Mo, 15.10. 20:00 1017 + 0,3
Ortszeit Luftdruck NN (hPa) Tendenz (hPa in 3 Std.)
Mi, 17.10. 16:30 1017 - 0,7
Mi, 17.10. 16:20 1017 keine Meldung
Mi, 17.10. 16:10 1017 keine Meldung
Mi, 17.10. 16:00 1017 - 1,1
Mi, 17.10. 15:50 1017 keine Meldung
Mi, 17.10. 15:40 1017 keine Meldung
Mi, 17.10. 15:30 1017 - 1,3
Mi, 17.10. 15:00 1017 - 1,5
Mi, 17.10. 14:30 1017 - 1,4
Mi, 17.10. 14:00 1018 - 1,2
Mi, 17.10. 13:30 1018 - 0,9
Ortszeit Schneehöhe (cm)
Mi, 17.10. 14:00 0
Mi, 17.10. 8:00 0
Mi, 17.10. 2:00 0
Di, 16.10. 20:00 0
Di, 16.10. 14:00 0
Di, 16.10. 8:00 0
Di, 16.10. 2:00 0
Mo, 15.10. 20:00 0
Ortszeit Schneehöhe (cm)
Mi, 17.10. 16:30 0
Mi, 17.10. 16:20 0
Mi, 17.10. 16:10 0
Mi, 17.10. 16:00 0
Mi, 17.10. 15:50 0
Mi, 17.10. 15:40 0
Mi, 17.10. 15:30 0
Mi, 17.10. 15:00 0
Mi, 17.10. 14:30 0
Mi, 17.10. 14:00 0
Mi, 17.10. 13:30 0
Link zu dieser Seite / Seite empfehlen

Das Wetter in ...